Time;durP1;ratioP1;P1;durP2;ratioP2;P2;SDS_P1;SDS_P2;PMS_P1;PMS_P2;Temp;Humidity;BMP_temperature;BMP_pressure;BME280_temperature;BME280_humidity;BME280_pressure;Samples;Min_cycle;Max_cycle;Signal;HPM_P1;HPM_P2
2023/03/15 00:01:56;;;;;;;6.70;0.93;;;3.20;99.90;;;;;;5083612;28;20843;-75
2023/03/15 00:04:23;;;;;;;7.57;1.00;;;3.20;99.90;;;;;;5086929;28;20469;-75
2023/03/15 00:06:49;;;;;;;11.55;1.35;;;3.10;99.90;;;;;;5091156;28;20421;-75
2023/03/15 00:09:15;;;;;;;6.18;1.10;;;3.10;99.90;;;;;;5090606;28;20433;-75
2023/03/15 00:11:40;;;;;;;6.70;1.08;;;3.00;99.90;;;;;;5090293;28;20386;-75
2023/03/15 00:14:06;;;;;;;11.00;1.17;;;3.00;99.90;;;;;;5087858;28;20779;-75
2023/03/15 00:16:32;;;;;;;10.23;1.10;;;3.00;99.90;;;;;;5079325;28;20780;-75
2023/03/15 00:18:57;;;;;;;7.20;0.90;;;3.00;99.90;;;;;;5089340;28;20487;-75
2023/03/15 00:21:23;;;;;;;8.63;1.08;;;3.00;99.90;;;;;;5088768;28;20512;-75
2023/03/15 00:23:49;;;;;;;8.27;0.95;;;3.00;99.90;;;;;;5089803;28;20406;-75
2023/03/15 00:26:15;;;;;;;12.90;1.60;;;3.00;99.90;;;;;;5091594;28;20404;-75
2023/03/15 00:28:41;;;;;;;9.60;1.23;;;2.90;99.90;;;;;;5091542;28;20398;-75
2023/03/15 00:31:16;;;;;;;8.48;1.00;;;2.90;99.90;;;;;;5090539;28;20474;-75
2023/03/15 00:33:42;;;;;;;8.48;1.20;;;2.90;99.90;;;;;;5090531;28;20504;-75
2023/03/15 00:36:09;;;;;;;9.52;0.88;;;2.90;99.90;;;;;;5081241;28;20439;-75
2023/03/15 00:38:36;;;;;;;8.43;0.88;;;2.80;99.90;;;;;;5085303;28;20389;-75
2023/03/15 00:41:10;;;;;;;7.20;0.88;;;2.80;99.90;;;;;;5072216;28;20436;-75
2023/03/15 00:43:36;;;;;;;7.15;0.95;;;2.80;99.90;;;;;;5070294;28;20410;-75
2023/03/15 00:46:02;;;;;;;8.80;1.10;;;2.80;99.90;;;;;;5089089;28;20410;-75
2023/03/15 00:48:28;;;;;;;8.20;0.90;;;2.80;99.90;;;;;;5090646;28;20398;-75
2023/03/15 00:51:06;;;;;;;6.38;0.73;;;2.70;99.90;;;;;;5090064;28;20390;-75
2023/03/15 00:53:33;;;;;;;9.30;0.90;;;2.70;99.90;;;;;;5087814;28;20410;-75
2023/03/15 00:56:17;;;;;;;8.02;0.85;;;2.80;99.90;;;;;;5090081;28;20458;-75
2023/03/15 00:58:43;;;;;;;4.43;0.40;;;2.80;99.90;;;;;;5085875;28;20872;-75
2023/03/15 01:01:12;;;;;;;7.63;0.82;;;2.80;99.90;;;;;;5109046;28;20424;-75
2023/03/15 01:03:38;;;;;;;4.53;0.55;;;2.70;99.90;;;;;;5109583;27;20413;-75
2023/03/15 01:06:10;;;;;;;2.85;0.47;;;2.70;99.90;;;;;;5093931;28;20398;-75
2023/03/15 01:08:35;;;;;;;4.50;0.60;;;2.70;99.90;;;;;;5089866;28;20414;-75
2023/03/15 01:11:03;;;;;;;5.25;0.45;;;2.60;99.90;;;;;;5089841;28;20394;-75
2023/03/15 01:13:29;;;;;;;6.85;0.70;;;2.60;99.90;;;;;;5088616;28;20406;-76
2023/03/15 01:15:54;;;;;;;7.38;1.05;;;2.60;99.90;;;;;;5076636;28;20407;-76
2023/03/15 01:18:20;;;;;;;6.53;0.67;;;2.60;99.90;;;;;;5090468;28;20406;-76
2023/03/15 01:20:46;;;;;;;5.13;0.50;;;2.50;99.90;;;;;;5088882;28;20436;-75
2023/03/15 01:23:12;;;;;;;5.43;0.70;;;2.50;99.90;;;;;;5081530;28;20850;-76
2023/03/15 01:25:37;;;;;;;6.32;0.60;;;2.50;99.90;;;;;;5085091;28;20426;-76
2023/03/15 01:28:03;;;;;;;8.23;0.80;;;2.50;99.90;;;;;;5089022;28;20485;-76
2023/03/15 01:30:29;;;;;;;8.73;0.70;;;2.50;99.90;;;;;;5077537;28;20839;-75
2023/03/15 01:32:54;;;;;;;5.75;0.68;;;2.50;99.90;;;;;;5089057;28;20741;-76
2023/03/15 01:35:20;;;;;;;6.60;0.73;;;2.50;99.90;;;;;;5090454;28;20409;-76
2023/03/15 01:37:48;;;;;;;5.83;0.60;;;2.40;99.90;;;;;;5089014;28;20956;-76
2023/03/15 01:40:14;;;;;;;8.27;0.80;;;2.50;99.90;;;;;;5087916;28;20410;-76
2023/03/15 01:43:02;;;;;;;7.40;0.80;;;2.50;99.90;;;;;;5087284;28;20453;-75
2023/03/15 01:45:52;;;;;;;9.07;1.30;;;2.50;99.90;;;;;;5088938;28;21036;-76
2023/03/15 01:48:21;;;;;;;9.32;0.82;;;2.50;99.90;;;;;;5088044;28;20414;-76
2023/03/15 01:50:48;;;;;;;10.55;1.30;;;2.50;99.90;;;;;;5088629;28;20406;-75
2023/03/15 01:53:14;;;;;;;9.43;1.23;;;2.50;99.90;;;;;;5088727;28;20410;-75
2023/03/15 01:55:40;;;;;;;9.82;0.90;;;2.60;99.90;;;;;;5089341;28;20488;-76
2023/03/15 01:58:07;;;;;;;9.40;0.98;;;2.50;99.90;;;;;;5087432;28;20472;-76
2023/03/15 02:00:33;;;;;;;8.15;1.23;;;2.60;99.90;;;;;;5088607;28;20469;-76
2023/03/15 02:03:08;;;;;;;7.68;0.70;;;2.60;99.90;;;;;;5088486;28;20416;-76
2023/03/15 02:05:44;;;;;;;6.65;1.17;;;2.60;99.90;;;;;;5087864;28;20418;-76
2023/03/15 02:08:11;;;;;;;8.48;1.08;;;2.60;99.90;;;;;;5089533;28;20405;-76
2023/03/15 02:10:42;;;;;;;8.40;1.02;;;2.70;99.90;;;;;;5087845;28;20402;-76
2023/03/15 02:13:08;;;;;;;10.88;1.00;;;2.60;99.90;;;;;;5083556;28;20493;-76
2023/03/15 02:15:34;;;;;;;10.00;1.27;;;2.70;99.90;;;;;;5081812;28;20480;-76
2023/03/15 02:18:00;;;;;;;7.82;0.82;;;2.80;99.90;;;;;;5088985;28;20402;-76
2023/03/15 02:21:03;;;;;;;9.68;0.88;;;2.80;99.90;;;;;;5088496;28;20489;-75
2023/03/15 02:23:30;;;;;;;8.75;1.23;;;2.90;99.90;;;;;;5080205;28;20849;-75
2023/03/15 02:25:56;;;;;;;8.88;1.23;;;2.90;99.90;;;;;;5087704;28;20398;-76
2023/03/15 02:28:22;;;;;;;11.15;1.20;;;2.90;99.90;;;;;;5087080;28;20474;-75
2023/03/15 02:30:48;;;;;;;7.47;1.15;;;3.00;99.90;;;;;;5086828;28;20394;-75
2023/03/15 02:33:27;;;;;;;11.05;1.00;;;3.00;99.90;;;;;;5088274;28;20402;-76
2023/03/15 02:35:54;;;;;;;11.77;1.50;;;3.00;99.90;;;;;;5084511;28;20402;-75
2023/03/15 02:38:21;;;;;;;8.63;1.40;;;3.00;99.90;;;;;;5100133;28;20498;-75
2023/03/15 02:40:50;;;;;;;12.18;1.50;;;2.90;99.90;;;;;;5083175;28;20411;-76
2023/03/15 02:43:22;;;;;;;10.60;1.25;;;2.90;99.90;;;;;;5103399;28;20416;-76
2023/03/15 02:45:48;;;;;;;11.47;1.33;;;2.90;99.90;;;;;;5107145;28;20400;-76
2023/03/15 02:48:15;;;;;;;10.70;0.95;;;2.80;99.90;;;;;;5105619;28;20455;-76
2023/03/15 02:50:41;;;;;;;8.07;1.20;;;2.80;99.90;;;;;;5105571;28;20411;-76
2023/03/15 02:53:07;;;;;;;9.17;1.47;;;2.70;99.90;;;;;;5090650;28;20818;-76
2023/03/15 02:55:32;;;;;;;12.27;1.90;;;2.70;99.90;;;;;;5107643;28;20404;-76
2023/03/15 02:57:59;;;;;;;11.95;1.15;;;2.60;99.90;;;;;;5104388;28;20401;-76
2023/03/15 03:00:25;;;;;;;12.85;1.95;;;2.60;99.90;;;;;;5107207;28;20408;-75
2023/03/15 03:02:51;;;;;;;11.15;1.48;;;2.60;99.90;;;;;;5096136;28;20959;-76
2023/03/15 03:05:17;;;;;;;9.40;1.55;;;2.50;99.90;;;;;;5111932;28;20399;-76
2023/03/15 03:07:43;;;;;;;12.50;1.75;;;2.50;99.90;;;;;;5097593;28;20394;-76
2023/03/15 03:10:11;;;;;;;10.73;1.60;;;2.40;99.90;;;;;;5111943;28;20396;-76
2023/03/15 03:12:37;;;;;;;12.68;1.60;;;2.40;99.90;;;;;;5107204;28;20401;-76
2023/03/15 03:15:03;;;;;;;10.80;1.70;;;2.40;99.90;;;;;;5101195;28;20388;-76
2023/03/15 03:17:29;;;;;;;8.35;1.40;;;2.40;99.90;;;;;;5111825;27;20476;-76
2023/03/15 03:19:55;;;;;;;13.07;1.83;;;2.40;99.90;;;;;;5094948;28;20482;-76
2023/03/15 03:22:23;;;;;;;16.77;1.88;;;2.30;99.90;;;;;;5088094;28;20430;-76
2023/03/15 03:24:50;;;;;;;11.35;1.25;;;2.30;99.90;;;;;;5090998;28;20402;-76
2023/03/15 03:27:16;;;;;;;10.13;1.27;;;2.30;99.90;;;;;;5092699;28;20398;-76
2023/03/15 03:29:42;;;;;;;10.63;1.80;;;2.30;99.90;;;;;;5090381;28;20402;-76
2023/03/15 03:32:08;;;;;;;15.50;2.50;;;2.30;99.90;;;;;;5091514;28;20401;-76
2023/03/15 03:34:34;;;;;;;15.77;2.53;;;2.20;99.90;;;;;;5091616;28;20398;-76
2023/03/15 03:37:00;;;;;;;9.85;1.30;;;2.20;99.90;;;;;;5074090;28;20406;-76
2023/03/15 03:39:25;;;;;;;10.40;1.73;;;2.20;99.90;;;;;;5101255;28;20429;-76
2023/03/15 03:41:51;;;;;;;12.10;1.48;;;2.20;99.90;;;;;;5089483;28;20425;-76
2023/03/15 03:44:17;;;;;;;10.50;1.40;;;2.10;99.90;;;;;;5090367;28;20962;-76
2023/03/15 03:46:43;;;;;;;9.30;1.30;;;2.20;99.90;;;;;;5103303;28;20496;-76
2023/03/15 03:49:09;;;;;;;9.07;1.33;;;2.20;99.90;;;;;;5110256;28;20442;-76
2023/03/15 03:51:35;;;;;;;13.82;1.90;;;2.30;99.90;;;;;;5106485;28;20402;-76
2023/03/15 03:54:01;;;;;;;9.45;1.30;;;2.40;99.90;;;;;;5101814;28;20903;-76
2023/03/15 03:56:27;;;;;;;7.60;1.27;;;2.50;99.90;;;;;;5092279;28;20954;-76
2023/03/15 03:58:52;;;;;;;9.75;1.48;;;2.60;99.90;;;;;;5099617;28;20434;-76
2023/03/15 04:01:18;;;;;;;7.87;1.00;;;2.60;99.90;;;;;;5093792;28;20464;-76
2023/03/15 04:03:44;;;;;;;8.20;1.00;;;2.60;99.90;;;;;;5092798;28;20755;-76
2023/03/15 04:06:09;;;;;;;8.95;1.35;;;2.60;99.90;;;;;;5092669;28;20398;-76
2023/03/15 04:08:35;;;;;;;8.52;1.00;;;2.60;99.90;;;;;;5091000;28;20402;-76
2023/03/15 04:11:03;;;;;;;6.70;1.00;;;2.60;99.90;;;;;;5093267;28;20398;-76
2023/03/15 04:13:30;;;;;;;9.80;0.95;;;2.50;99.90;;;;;;5092763;28;20418;-76
2023/03/15 04:15:56;;;;;;;6.43;1.15;;;2.50;99.90;;;;;;5094004;28;20916;-76
2023/03/15 04:18:22;;;;;;;10.20;1.35;;;2.40;99.90;;;;;;5089299;28;20418;-77
2023/03/15 04:20:48;;;;;;;6.88;0.85;;;2.40;99.90;;;;;;5090264;28;20431;-77
2023/03/15 04:23:15;;;;;;;7.63;0.82;;;2.40;99.90;;;;;;5092091;28;20398;-77
2023/03/15 04:25:41;;;;;;;8.98;1.67;;;2.40;99.90;;;;;;5090916;28;20814;-77
2023/03/15 04:28:09;;;;;;;6.55;0.93;;;2.40;99.90;;;;;;5090269;28;20394;-77
2023/03/15 04:30:36;;;;;;;6.85;1.20;;;2.40;99.90;;;;;;5088623;28;20895;-77
2023/03/15 04:33:02;;;;;;;6.63;0.85;;;2.40;99.90;;;;;;5089600;28;20405;-78
2023/03/15 04:35:35;;;;;;;8.00;1.05;;;2.40;99.90;;;;;;5070366;28;20480;-76
2023/03/15 04:38:02;;;;;;;10.38;0.70;;;2.40;99.90;;;;;;5079686;28;20435;-77
2023/03/15 04:40:33;;;;;;;6.97;0.70;;;2.50;99.90;;;;;;5090152;28;20402;-77
2023/03/15 04:43:00;;;;;;;7.82;0.60;;;2.50;99.90;;;;;;5091166;28;20438;-77
2023/03/15 04:45:27;;;;;;;5.07;0.70;;;2.50;99.90;;;;;;5091673;28;20887;-76
2023/03/15 04:47:53;;;;;;;6.50;0.68;;;2.40;99.90;;;;;;5091667;28;20473;-76
2023/03/15 04:50:20;;;;;;;5.43;0.50;;;2.40;99.90;;;;;;5091510;28;20493;-77
2023/03/15 04:52:46;;;;;;;5.85;0.68;;;2.40;99.90;;;;;;5092952;28;20450;-77
2023/03/15 04:55:12;;;;;;;4.60;0.50;;;2.40;99.90;;;;;;5064418;28;20412;-77
2023/03/15 04:57:39;;;;;;;4.88;0.45;;;2.40;99.90;;;;;;5091906;28;20438;-76
2023/03/15 05:00:09;;;;;;;5.28;0.40;;;2.30;99.90;;;;;;5091647;28;20398;-76
2023/03/15 05:02:38;;;;;;;6.10;0.53;;;2.30;99.90;;;;;;5092218;28;21071;-76
2023/03/15 05:05:08;;;;;;;7.20;0.90;;;2.20;99.90;;;;;;5073634;28;20935;-76
2023/03/15 05:07:35;;;;;;;5.90;0.70;;;2.20;99.90;;;;;;5091437;28;20406;-76
2023/03/15 05:10:01;;;;;;;3.20;0.50;;;2.10;99.90;;;;;;5088937;28;20398;-76
2023/03/15 05:12:27;;;;;;;2.45;0.40;;;2.10;99.90;;;;;;5061012;28;20405;-76
2023/03/15 05:14:53;;;;;;;2.88;0.32;;;2.10;99.90;;;;;;5090688;28;20410;-76
2023/03/15 05:17:21;;;;;;;4.50;0.40;;;2.10;99.90;;;;;;5092285;28;20413;-76
2023/03/15 05:19:47;;;;;;;3.58;0.40;;;2.00;99.90;;;;;;5087970;28;20406;-76
2023/03/15 05:22:13;;;;;;;4.50;0.40;;;2.00;99.90;;;;;;5092833;28;21048;-76
2023/03/15 05:24:39;;;;;;;3.95;0.30;;;2.00;99.90;;;;;;5089871;28;20410;-75
2023/03/15 05:27:04;;;;;;;3.00;0.30;;;1.90;99.90;;;;;;5090639;28;20481;-76
2023/03/15 05:29:30;;;;;;;5.38;0.50;;;1.90;99.90;;;;;;5091303;28;20424;-76
2023/03/15 05:31:56;;;;;;;3.25;0.50;;;1.90;99.90;;;;;;5094413;28;20899;-77
2023/03/15 05:34:23;;;;;;;2.93;0.47;;;1.90;99.90;;;;;;5091356;28;20413;-76
2023/03/15 05:36:50;;;;;;;5.45;0.60;;;1.90;99.90;;;;;;5093740;28;20818;-76
2023/03/15 05:39:17;;;;;;;3.70;0.50;;;1.90;99.90;;;;;;5092080;28;20401;-76
2023/03/15 05:41:43;;;;;;;5.93;0.60;;;1.80;99.90;;;;;;5089076;28;20788;-77
2023/03/15 05:44:08;;;;;;;3.30;0.50;;;1.80;99.90;;;;;;5077284;28;20403;-76
2023/03/15 05:46:34;;;;;;;6.82;0.85;;;1.80;99.90;;;;;;5089473;28;20406;-76
2023/03/15 05:49:00;;;;;;;6.88;0.85;;;1.80;99.90;;;;;;5081818;28;20411;-76
2023/03/15 05:51:25;;;;;;;6.07;0.60;;;1.70;99.90;;;;;;5090127;28;20772;-76
2023/03/15 05:53:51;;;;;;;4.57;0.63;;;1.70;99.90;;;;;;5089960;28;20539;-76
2023/03/15 05:56:16;;;;;;;5.57;0.90;;;1.70;99.90;;;;;;5090639;28;20755;-76
2023/03/15 05:58:42;;;;;;;10.17;1.00;;;1.70;99.90;;;;;;5091061;28;20406;-76
2023/03/15 06:01:08;;;;;;;4.63;0.63;;;1.70;99.90;;;;;;5093108;28;20832;-76
2023/03/15 06:03:33;;;;;;;6.10;1.00;;;1.60;99.90;;;;;;5090726;28;20481;-76
2023/03/15 06:05:59;;;;;;;9.13;0.90;;;1.60;99.90;;;;;;5092600;28;20493;-76
2023/03/15 06:08:25;;;;;;;5.43;0.80;;;1.60;99.90;;;;;;5090187;28;20497;-76
2023/03/15 06:10:51;;;;;;;9.55;0.98;;;1.60;99.90;;;;;;5081564;28;20412;-76
2023/03/15 06:13:17;;;;;;;7.38;1.35;;;1.60;99.90;;;;;;5079712;28;20433;-76
2023/03/15 06:15:45;;;;;;;7.13;0.90;;;1.60;99.90;;;;;;5088663;28;20402;-76
2023/03/15 06:18:12;;;;;;;10.15;1.17;;;1.70;99.90;;;;;;5088994;28;20421;-76
2023/03/15 06:20:38;;;;;;;8.00;0.70;;;1.70;99.90;;;;;;5070051;28;20537;-76
2023/03/15 06:23:04;;;;;;;6.63;1.10;;;1.70;99.90;;;;;;5059341;28;20435;-76
2023/03/15 06:25:30;;;;;;;7.25;1.48;;;1.70;99.90;;;;;;5089346;28;20823;-76
2023/03/15 06:27:55;;;;;;;5.07;0.80;;;1.70;99.90;;;;;;5087756;28;20413;-76
2023/03/15 06:30:21;;;;;;;8.00;1.05;;;1.60;99.90;;;;;;5085126;28;20418;-76
2023/03/15 06:32:47;;;;;;;4.40;0.60;;;1.50;99.90;;;;;;5086911;28;20416;-76
2023/03/15 06:35:12;;;;;;;5.83;0.80;;;1.50;99.90;;;;;;5085807;28;21113;-76
2023/03/15 06:37:38;;;;;;;7.82;0.95;;;1.50;99.90;;;;;;5088697;28;20405;-76
2023/03/15 06:40:24;;;;;;;8.18;0.80;;;1.40;99.90;;;;;;5087035;28;20938;-76
2023/03/15 06:42:49;;;;;;;6.85;0.80;;;1.50;99.90;;;;;;5088210;28;20462;-76
2023/03/15 06:45:15;;;;;;;5.72;0.88;;;1.40;99.90;;;;;;5086969;28;20852;-76
2023/03/15 06:47:41;;;;;;;6.10;0.70;;;1.50;99.90;;;;;;5088211;28;20406;-74
2023/03/15 06:50:07;;;;;;;7.50;1.07;;;1.50;99.90;;;;;;5083001;28;21283;-74
2023/03/15 06:52:32;;;;;;;8.02;0.73;;;1.60;99.90;;;;;;5080205;28;21049;-75
2023/03/15 06:54:58;;;;;;;8.85;1.20;;;1.60;99.90;;;;;;5079584;28;20429;-75
2023/03/15 06:57:24;;;;;;;6.90;1.10;;;1.60;99.90;;;;;;5086527;28;21254;-75
2023/03/15 06:59:49;;;;;;;5.10;1.00;;;1.50;99.90;;;;;;5080725;28;20544;-76
2023/03/15 07:02:17;;;;;;;7.25;1.10;;;1.50;99.90;;;;;;5076984;28;20438;-76
2023/03/15 07:04:43;;;;;;;6.07;0.90;;;1.50;99.90;;;;;;5086007;28;20749;-76
2023/03/15 07:07:10;;;;;;;7.90;1.20;;;1.50;99.90;;;;;;5069872;28;20445;-76
2023/03/15 07:09:36;;;;;;;7.88;1.15;;;1.50;99.90;;;;;;5086511;28;20413;-76
2023/03/15 07:12:02;;;;;;;6.38;1.48;;;1.50;99.90;;;;;;5088088;28;20406;-76
2023/03/15 07:14:27;;;;;;;9.02;1.35;;;1.60;99.90;;;;;;5077277;28;20410;-76
2023/03/15 07:16:53;;;;;;;7.10;0.97;;;1.60;99.90;;;;;;5092029;28;20493;-76
2023/03/15 07:19:18;;;;;;;7.03;1.17;;;1.70;99.90;;;;;;5090285;28;20398;-76
2023/03/15 07:21:44;;;;;;;7.65;0.98;;;1.70;99.90;;;;;;5092223;28;21132;-76
2023/03/15 07:24:10;;;;;;;7.70;1.40;;;1.70;99.90;;;;;;5090245;28;20398;-76
2023/03/15 07:26:35;;;;;;;10.10;1.48;;;1.80;99.90;;;;;;5090050;28;20870;-76
2023/03/15 07:29:01;;;;;;;8.40;1.53;;;1.90;99.90;;;;;;5078941;28;20394;-76
2023/03/15 07:31:26;;;;;;;7.30;1.10;;;1.90;99.90;;;;;;5092324;28;20444;-76
2023/03/15 07:33:52;;;;;;;8.90;1.08;;;2.00;99.90;;;;;;5090480;28;20521;-77
2023/03/15 07:36:18;;;;;;;8.03;1.30;;;2.00;99.90;;;;;;5092718;28;20402;-76
2023/03/15 07:38:43;;;;;;;9.95;1.45;;;2.10;99.90;;;;;;5089318;28;20503;-77
2023/03/15 07:41:09;;;;;;;9.07;1.10;;;2.10;99.90;;;;;;5089073;28;20429;-76
2023/03/15 07:43:35;;;;;;;11.03;1.57;;;2.20;99.90;;;;;;5090248;28;20398;-76
2023/03/15 07:46:00;;;;;;;8.15;1.20;;;2.20;99.90;;;;;;5091143;28;20772;-76
2023/03/15 07:48:28;;;;;;;10.23;1.43;;;2.30;99.90;;;;;;5094330;28;20405;-77
2023/03/15 07:50:54;;;;;;;8.63;1.40;;;2.30;99.90;;;;;;5085730;28;20476;-76
2023/03/15 07:53:20;;;;;;;7.43;1.20;;;2.40;99.90;;;;;;5085984;28;20428;-77
2023/03/15 07:55:47;;;;;;;11.05;1.38;;;2.50;99.90;;;;;;5079811;28;20411;-77
2023/03/15 07:58:12;;;;;;;10.35;1.58;;;2.60;99.90;;;;;;5093784;28;20745;-76
2023/03/15 08:00:38;;;;;;;8.90;1.47;;;2.60;99.90;;;;;;5095972;28;20409;-75
2023/03/15 08:03:05;;;;;;;12.43;1.67;;;2.70;99.90;;;;;;5095162;28;20417;-75
2023/03/15 08:05:32;;;;;;;11.47;1.67;;;2.80;99.90;;;;;;5097534;28;20462;-75
2023/03/15 08:07:58;;;;;;;10.52;1.88;;;2.90;99.90;;;;;;5095085;28;20398;-75
2023/03/15 08:10:24;;;;;;;9.52;1.48;;;3.00;99.90;;;;;;5091250;28;20405;-75
2023/03/15 08:12:50;;;;;;;9.32;1.70;;;3.10;99.90;;;;;;5092180;28;20397;-76
2023/03/15 08:15:16;;;;;;;10.48;1.25;;;3.10;99.90;;;;;;5092934;28;20503;-76
2023/03/15 08:17:42;;;;;;;12.25;1.65;;;3.20;99.90;;;;;;5093250;28;20402;-76
2023/03/15 08:20:10;;;;;;;7.93;1.33;;;3.30;99.90;;;;;;5093859;28;20459;-77
2023/03/15 08:22:37;;;;;;;8.60;1.38;;;3.40;99.90;;;;;;5089215;28;20508;-77
2023/03/15 08:25:03;;;;;;;9.67;1.60;;;3.50;99.90;;;;;;5082490;28;21006;-77
2023/03/15 08:27:29;;;;;;;9.68;1.17;;;3.60;99.90;;;;;;5093080;28;20397;-78
2023/03/15 08:29:54;;;;;;;14.73;1.80;;;3.70;99.90;;;;;;5081626;28;20527;-78
2023/03/15 08:32:20;;;;;;;11.47;1.40;;;3.70;99.90;;;;;;5092080;28;20932;-78
2023/03/15 08:34:46;;;;;;;8.32;1.10;;;3.80;99.90;;;;;;5096973;28;20384;-78
2023/03/15 08:37:12;;;;;;;8.07;1.10;;;3.90;99.90;;;;;;5069750;28;20439;-78
2023/03/15 08:39:38;;;;;;;11.43;1.40;;;3.90;99.90;;;;;;5093432;28;20404;-77
2023/03/15 08:42:04;;;;;;;9.70;1.48;;;4.00;99.90;;;;;;5083925;28;20437;-78
2023/03/15 08:44:30;;;;;;;10.75;1.17;;;4.10;99.90;;;;;;5095984;28;20799;-78
2023/03/15 08:46:56;;;;;;;7.43;1.25;;;4.20;99.90;;;;;;5092073;28;20414;-78
2023/03/15 08:49:22;;;;;;;8.27;1.10;;;4.20;99.90;;;;;;5095844;28;20457;-78
2023/03/15 08:51:47;;;;;;;9.93;1.48;;;4.30;99.90;;;;;;5083164;28;20437;-78
2023/03/15 08:54:13;;;;;;;8.70;1.50;;;4.40;99.90;;;;;;5096517;28;20396;-78
2023/03/15 08:56:40;;;;;;;10.93;1.60;;;4.40;99.90;;;;;;5082513;28;20753;-78
2023/03/15 08:59:07;;;;;;;9.57;1.25;;;4.50;99.90;;;;;;5094040;28;20441;-77
2023/03/15 09:01:33;;;;;;;7.93;1.42;;;4.60;99.90;;;;;;5084107;28;20479;-78
2023/03/15 09:04:00;;;;;;;9.53;1.40;;;4.70;99.90;;;;;;5093479;28;20401;-78
2023/03/15 09:06:26;;;;;;;7.22;1.10;;;4.80;99.90;;;;;;5083539;28;20410;-78
2023/03/15 09:08:52;;;;;;;8.98;1.42;;;4.80;99.90;;;;;;5089495;28;20784;-78
2023/03/15 09:11:19;;;;;;;6.73;1.10;;;4.90;99.90;;;;;;5089558;28;20479;-78
2023/03/15 09:13:44;;;;;;;10.75;1.50;;;5.00;99.90;;;;;;5091841;28;20397;-78
2023/03/15 09:16:10;;;;;;;7.73;1.07;;;5.10;99.90;;;;;;5087825;28;21061;-78
2023/03/15 09:18:35;;;;;;;8.38;1.00;;;5.20;99.90;;;;;;5092918;28;20961;-78
2023/03/15 09:21:01;;;;;;;7.50;1.40;;;5.20;99.90;;;;;;5088704;28;20446;-78
2023/03/15 09:23:27;;;;;;;7.20;1.00;;;5.40;99.90;;;;;;5091698;28;20753;-78
2023/03/15 09:25:52;;;;;;;10.50;1.45;;;5.90;99.90;;;;;;5089554;28;20402;-78
2023/03/15 09:28:18;;;;;;;6.33;0.87;;;6.90;99.90;;;;;;5092944;28;20408;-78
2023/03/15 09:30:43;;;;;;;8.48;1.13;;;7.80;99.90;;;;;;5090843;28;20428;-76
2023/03/15 09:33:13;;;;;;;7.50;1.00;;;8.50;99.90;;;;;;5076260;28;20782;-76
2023/03/15 09:35:39;;;;;;;11.38;1.60;;;9.20;99.90;;;;;;5118682;27;20406;-76
2023/03/15 09:38:05;;;;;;;6.90;1.00;;;9.80;99.90;;;;;;5091799;28;20810;-77
2023/03/15 09:40:43;;;;;;;7.00;1.10;;;10.20;99.90;;;;;;5079190;28;20431;-77
2023/03/15 09:43:38;;;;;;;10.27;1.35;;;10.60;99.90;;;;;;5089377;28;20406;-77
2023/03/15 09:46:29;;;;;;;6.25;0.90;;;10.80;99.90;;;;;;5078461;28;20408;-77
2023/03/15 09:49:04;;;;;;;8.07;0.93;;;10.70;99.90;;;;;;5081616;28;20787;-77
2023/03/15 09:51:49;;;;;;;6.43;0.90;;;10.90;99.90;;;;;;5085119;28;20883;-77
2023/03/15 09:54:22;;;;;;;9.18;1.10;;;11.10;99.90;;;;;;5088965;28;20405;-77
2023/03/15 09:57:01;;;;;;;5.53;0.90;;;11.30;99.90;;;;;;5076567;28;20513;-77
2023/03/15 09:59:33;;;;;;;7.38;1.20;;;11.60;99.90;;;;;;5067140;28;20544;-77
2023/03/15 10:02:12;;;;;;;7.90;1.17;;;11.90;99.90;;;;;;5087228;28;20441;-77
2023/03/15 10:04:39;;;;;;;6.97;1.00;;;11.90;99.90;;;;;;5086306;28;20733;-77
2023/03/15 10:07:10;;;;;;;8.98;1.45;;;11.80;99.90;;;;;;5086526;28;20409;-77
2023/03/15 10:09:36;;;;;;;6.90;1.05;;;12.00;99.90;;;;;;5088082;28;20408;-77
2023/03/15 10:12:09;;;;;;;6.85;1.10;;;11.50;99.90;;;;;;5087041;28;20891;-77
2023/03/15 10:14:58;;;;;;;6.20;1.10;;;11.50;99.90;;;;;;5088615;28;20760;-77
2023/03/15 10:17:49;;;;;;;6.88;1.13;;;11.70;99.90;;;;;;5074494;28;20406;-77
2023/03/15 10:20:22;;;;;;;5.78;0.63;;;11.50;97.10;;;;;;5079728;28;20427;-77
2023/03/15 10:23:04;;;;;;;6.97;0.90;;;10.70;98.80;;;;;;5079663;28;20428;-77
2023/03/15 10:25:31;;;;;;;9.48;1.35;;;10.20;99.90;;;;;;5085490;28;20850;-77
2023/03/15 10:28:08;;;;;;;4.97;1.07;;;10.00;99.90;;;;;;5088595;28;20409;-76
2023/03/15 10:30:37;;;;;;;8.82;1.38;;;9.60;99.90;;;;;;5075643;28;20414;-77
2023/03/15 10:33:21;;;;;;;7.20;1.05;;;10.00;99.90;;;;;;5090286;28;20402;-77
2023/03/15 10:35:47;;;;;;;8.77;1.13;;;10.90;99.60;;;;;;5074209;28;20423;-77
2023/03/15 10:38:14;;;;;;;6.13;0.80;;;11.60;99.60;;;;;;5091322;28;20409;-77
2023/03/15 10:40:46;;;;;;;4.93;0.90;;;12.00;97.50;;;;;;5091029;28;20405;-77
2023/03/15 10:43:22;;;;;;;8.35;0.98;;;12.10;95.80;;;;;;5093708;28;20414;-77
2023/03/15 10:46:03;;;;;;;6.68;1.10;;;11.30;95.60;;;;;;5089684;28;20590;-77
2023/03/15 10:48:30;;;;;;;4.57;0.70;;;10.20;96.80;;;;;;5079936;28;20436;-77
2023/03/15 10:50:59;;;;;;;6.32;1.13;;;9.50;99.60;;;;;;5091604;28;20402;-77
2023/03/15 10:53:25;;;;;;;5.88;0.93;;;9.90;99.90;;;;;;5079548;28;20884;-77
2023/03/15 10:56:04;;;;;;;9.73;1.40;;;10.90;99.90;;;;;;5091943;28;20999;-77
2023/03/15 10:58:41;;;;;;;8.73;1.05;;;11.80;99.90;;;;;;5087520;28;20402;-76
2023/03/15 11:01:12;;;;;;;11.30;1.42;;;11.80;95.00;;;;;;5090794;28;20417;-77
2023/03/15 11:03:40;;;;;;;5.60;0.90;;;11.90;95.80;;;;;;5079211;28;20411;-77
2023/03/15 11:06:20;;;;;;;7.90;1.05;;;12.20;95.70;;;;;;5086431;28;20402;-77
2023/03/15 11:08:45;;;;;;;7.57;0.80;;;11.80;95.50;;;;;;5090752;28;20523;-77
2023/03/15 11:11:11;;;;;;;9.60;1.20;;;10.90;94.50;;;;;;5087522;28;20501;-77
2023/03/15 11:13:39;;;;;;;7.75;1.15;;;10.20;96.20;;;;;;5088429;28;20837;-77
2023/03/15 11:16:19;;;;;;;7.60;0.90;;;10.50;98.10;;;;;;5087050;28;20438;-77
2023/03/15 11:18:47;;;;;;;5.22;0.90;;;11.40;98.90;;;;;;5070809;28;20910;-77
2023/03/15 11:21:16;;;;;;;5.93;0.90;;;12.20;97.20;;;;;;5090162;28;20434;-77
2023/03/15 11:23:48;;;;;;;6.95;1.00;;;12.50;95.00;;;;;;5093932;28;20426;-77
2023/03/15 11:26:21;;;;;;;7.60;1.00;;;11.80;94.40;;;;;;5093400;28;20397;-77
2023/03/15 11:28:55;;;;;;;7.22;1.08;;;11.10;93.60;;;;;;5091464;28;20410;-77
2023/03/15 11:31:24;;;;;;;5.18;0.82;;;11.10;95.40;;;;;;5094232;28;20410;-77
2023/03/15 11:34:16;;;;;;;6.03;0.80;;;11.80;95.10;;;;;;5092692;28;20489;-77
2023/03/15 11:36:46;;;;;;;5.50;0.80;;;12.60;94.00;;;;;;5096684;28;20406;-78
2023/03/15 11:39:14;;;;;;;6.93;1.48;;;13.50;94.00;;;;;;5093926;28;21528;-78
2023/03/15 11:41:47;;;;;;;6.27;1.20;;;13.80;91.10;;;;;;5090911;28;20464;-78
2023/03/15 11:44:34;;;;;;;6.80;1.10;;;13.80;90.40;;;;;;5093422;28;20914;-78
2023/03/15 11:47:15;;;;;;;8.97;1.00;;;13.90;84.50;;;;;;5083703;28;20415;-78
2023/03/15 11:49:43;;;;;;;8.50;1.10;;;13.40;87.40;;;;;;5094993;28;20408;-78
2023/03/15 11:52:09;;;;;;;4.43;0.67;;;12.60;87.60;;;;;;5093092;28;20410;-77
2023/03/15 11:54:35;;;;;;;7.70;1.30;;;12.40;90.70;;;;;;5087739;28;20459;-78
2023/03/15 11:57:24;;;;;;;5.45;1.05;;;12.00;88.60;;;;;;5094443;28;20472;-77
2023/03/15 11:59:49;;;;;;;4.93;0.73;;;12.10;89.60;;;;;;5075066;28;20413;-78
2023/03/15 12:02:15;;;;;;;4.97;0.70;;;12.90;80.90;;;;;;5093011;28;22213;-78
2023/03/15 12:04:48;;;;;;;8.20;1.03;;;13.30;86.40;;;;;;5085404;28;20421;-78
2023/03/15 12:07:14;;;;;;;11.52;1.17;;;13.90;81.60;;;;;;5095854;28;20404;-77
2023/03/15 12:09:46;;;;;;;;;;;14.60;81.20;;;;;;5093391;28;20047;-78
2023/03/15 12:12:23;;;;;;;;;;;14.60;81.70;;;;;;5094953;28;19945;-78
2023/03/15 12:15:07;;;;;;;;;;;14.60;77.90;;;;;;5094071;28;19967;-78
2023/03/15 12:17:33;;;;;;;;;;;14.50;78.70;;;;;;5093478;28;19920;-78
2023/03/15 12:20:10;;;;;;;;;;;14.60;75.80;;;;;;5095173;28;19931;-77
2023/03/15 12:22:46;;;;;;;;;;;14.70;71.00;;;;;;5083405;28;19920;-77
2023/03/15 12:25:17;;;;;;;;;;;15.00;73.50;;;;;;5093825;28;19924;-78
2023/03/15 12:27:54;;;;;;;3.60;0.50;;;15.40;69.00;;;;;;5090913;28;19920;-78
2023/03/15 12:30:34;;;;;;;;;;;15.60;66.50;;;;;;5092378;28;20048;-78
2023/03/15 12:33:00;;;;;;;;;;;15.50;65.00;;;;;;5065163;28;20407;-78
2023/03/15 12:35:37;;;;;;;;;;;15.60;64.70;;;;;;5095146;28;20389;-77
2023/03/15 12:38:20;;;;;;;8.43;1.38;;;15.70;65.80;;;;;;5091648;28;19976;-78
2023/03/15 12:40:49;;;;;;;5.05;0.68;;;16.00;65.90;;;;;;5092775;28;20105;-77
2023/03/15 12:43:14;;;;;;;6.70;0.70;;;16.10;66.50;;;;;;5096502;28;20100;-78
2023/03/15 12:45:44;;;;;;;5.65;0.57;;;16.50;66.30;;;;;;5084871;28;20048;-77
2023/03/15 12:48:11;;;;;;;;;;;17.10;68.70;;;;;;5099312;28;20088;-78
2023/03/15 12:50:37;;;;;;;;;;;17.10;62.00;;;;;;5095613;28;20026;-78
2023/03/15 12:53:09;;;;;;;;;;;17.10;61.80;;;;;;5095663;28;20417;-78
2023/03/15 12:55:34;;;;;;;;;;;16.80;59.60;;;;;;5097012;28;19920;-78
2023/03/15 12:58:01;;;;;;;;;;;16.80;61.30;;;;;;5081071;28;19927;-77
2023/03/15 13:00:29;;;;;;;;;;;17.00;57.60;;;;;;5095333;28;20266;-78
2023/03/15 13:03:04;;;;;;;;;;;16.90;59.20;;;;;;5097587;28;20014;-78
2023/03/15 13:05:42;;;;;;;;;;;16.80;59.20;;;;;;5095272;28;19955;-78